sensor_id;sensor_type;location;lat;lon;timestamp;temperature;humidity
68257;DHT22;55069;51.568;4.656;2024-01-07T00:01:49;2.30;88.47
68257;DHT22;55069;51.568;4.656;2024-01-07T00:04:15;2.28;89.12
68257;DHT22;55069;51.568;4.656;2024-01-07T00:06:42;2.24;88.66
68257;DHT22;55069;51.568;4.656;2024-01-07T00:09:07;2.37;89.27
68257;DHT22;55069;51.568;4.656;2024-01-07T00:11:33;2.31;89.23
68257;DHT22;55069;51.568;4.656;2024-01-07T00:13:58;2.34;89.70
68257;DHT22;55069;51.568;4.656;2024-01-07T00:16:24;2.33;89.43
68257;DHT22;55069;51.568;4.656;2024-01-07T00:18:49;2.21;89.62
68257;DHT22;55069;51.568;4.656;2024-01-07T00:21:15;2.21;90.04
68257;DHT22;55069;51.568;4.656;2024-01-07T00:23:40;2.21;89.84
68257;DHT22;55069;51.568;4.656;2024-01-07T00:26:06;2.21;90.20
68257;DHT22;55069;51.568;4.656;2024-01-07T00:28:32;2.18;90.20
68257;DHT22;55069;51.568;4.656;2024-01-07T00:30:57;2.11;90.30
68257;DHT22;55069;51.568;4.656;2024-01-07T00:33:23;2.20;90.59
68257;DHT22;55069;51.568;4.656;2024-01-07T00:35:48;2.16;90.65
68257;DHT22;55069;51.568;4.656;2024-01-07T00:38:14;2.16;90.57
68257;DHT22;55069;51.568;4.656;2024-01-07T00:40:39;2.11;90.25
68257;DHT22;55069;51.568;4.656;2024-01-07T00:43:05;2.09;90.75
68257;DHT22;55069;51.568;4.656;2024-01-07T00:45:30;2.13;90.68
68257;DHT22;55069;51.568;4.656;2024-01-07T00:47:56;2.05;90.44
68257;DHT22;55069;51.568;4.656;2024-01-07T00:50:21;2.07;90.77
68257;DHT22;55069;51.568;4.656;2024-01-07T00:52:47;2.03;90.73
68257;DHT22;55069;51.568;4.656;2024-01-07T00:55:12;2.03;90.92
68257;DHT22;55069;51.568;4.656;2024-01-07T00:57:38;2.10;90.78
68257;DHT22;55069;51.568;4.656;2024-01-07T01:00:07;2.05;90.69
68257;DHT22;55069;51.568;4.656;2024-01-07T01:02:33;2.05;91.25
68257;DHT22;55069;51.568;4.656;2024-01-07T01:04:58;2.05;90.84
68257;DHT22;55069;51.568;4.656;2024-01-07T01:07:24;2.10;91.10
68257;DHT22;55069;51.568;4.656;2024-01-07T01:09:49;2.10;90.95
68257;DHT22;55069;51.568;4.656;2024-01-07T01:12:15;2.14;90.86
68257;DHT22;55069;51.568;4.656;2024-01-07T01:14:41;2.06;90.95
68257;DHT22;55069;51.568;4.656;2024-01-07T01:17:06;1.95;90.65
68257;DHT22;55069;51.568;4.656;2024-01-07T01:19:32;1.95;91.14
68257;DHT22;55069;51.568;4.656;2024-01-07T01:21:57;1.93;91.07
68257;DHT22;55069;51.568;4.656;2024-01-07T01:24:23;1.89;90.82
68257;DHT22;55069;51.568;4.656;2024-01-07T01:26:49;1.82;90.82
68257;DHT22;55069;51.568;4.656;2024-01-07T01:29:14;1.87;91.50
68257;DHT22;55069;51.568;4.656;2024-01-07T01:31:39;1.96;91.58
68257;DHT22;55069;51.568;4.656;2024-01-07T01:34:06;1.92;90.91
68257;DHT22;55069;51.568;4.656;2024-01-07T01:36:31;1.89;91.24
68257;DHT22;55069;51.568;4.656;2024-01-07T01:38:57;1.83;91.40
68257;DHT22;55069;51.568;4.656;2024-01-07T01:41:22;1.79;91.05
68257;DHT22;55069;51.568;4.656;2024-01-07T01:43:48;1.75;91.27
68257;DHT22;55069;51.568;4.656;2024-01-07T01:46:14;1.82;91.69
68257;DHT22;55069;51.568;4.656;2024-01-07T01:48:39;1.82;91.52
68257;DHT22;55069;51.568;4.656;2024-01-07T01:51:06;1.75;91.32
68257;DHT22;55069;51.568;4.656;2024-01-07T01:53:32;1.79;91.58
68257;DHT22;55069;51.568;4.656;2024-01-07T01:56:00;1.73;91.86
68257;DHT22;55069;51.568;4.656;2024-01-07T01:58:28;1.68;91.89
68257;DHT22;55069;51.568;4.656;2024-01-07T02:00:54;1.78;92.14
68257;DHT22;55069;51.568;4.656;2024-01-07T02:03:20;1.79;92.15
68257;DHT22;55069;51.568;4.656;2024-01-07T02:05:45;1.66;92.00
68257;DHT22;55069;51.568;4.656;2024-01-07T02:08:13;1.68;91.96
68257;DHT22;55069;51.568;4.656;2024-01-07T02:10:39;1.70;92.03
68257;DHT22;55069;51.568;4.656;2024-01-07T02:13:04;1.76;91.78
68257;DHT22;55069;51.568;4.656;2024-01-07T02:15:30;1.76;91.99
68257;DHT22;55069;51.568;4.656;2024-01-07T02:17:56;1.72;91.64
68257;DHT22;55069;51.568;4.656;2024-01-07T02:20:22;1.75;91.86
68257;DHT22;55069;51.568;4.656;2024-01-07T02:22:47;1.79;91.74
68257;DHT22;55069;51.568;4.656;2024-01-07T02:25:13;1.82;92.17
68257;DHT22;55069;51.568;4.656;2024-01-07T02:27:38;1.75;91.63
68257;DHT22;55069;51.568;4.656;2024-01-07T02:30:04;1.68;91.57
68257;DHT22;55069;51.568;4.656;2024-01-07T02:32:30;1.63;91.72
68257;DHT22;55069;51.568;4.656;2024-01-07T02:35:00;1.68;92.28
68257;DHT22;55069;51.568;4.656;2024-01-07T02:37:25;1.69;92.46
68257;DHT22;55069;51.568;4.656;2024-01-07T02:39:51;1.68;92.23
68257;DHT22;55069;51.568;4.656;2024-01-07T02:42:16;1.69;91.85
68257;DHT22;55069;51.568;4.656;2024-01-07T02:44:42;1.73;92.06
68257;DHT22;55069;51.568;4.656;2024-01-07T02:47:07;1.80;91.99
68257;DHT22;55069;51.568;4.656;2024-01-07T02:49:33;1.82;92.12
68257;DHT22;55069;51.568;4.656;2024-01-07T02:51:59;1.65;92.00
68257;DHT22;55069;51.568;4.656;2024-01-07T02:54:24;1.66;92.22
68257;DHT22;55069;51.568;4.656;2024-01-07T02:56:50;1.73;92.32
68257;DHT22;55069;51.568;4.656;2024-01-07T02:59:15;1.66;92.79
68257;DHT22;55069;51.568;4.656;2024-01-07T03:01:41;1.69;92.76
68257;DHT22;55069;51.568;4.656;2024-01-07T03:04:12;1.68;92.86
68257;DHT22;55069;51.568;4.656;2024-01-07T03:06:37;1.68;93.15
68257;DHT22;55069;51.568;4.656;2024-01-07T03:09:03;1.72;93.06
68257;DHT22;55069;51.568;4.656;2024-01-07T03:11:29;1.72;93.08
68257;DHT22;55069;51.568;4.656;2024-01-07T03:13:55;1.76;93.23
68257;DHT22;55069;51.568;4.656;2024-01-07T03:16:21;1.75;93.15
68257;DHT22;55069;51.568;4.656;2024-01-07T03:18:47;1.78;92.93
68257;DHT22;55069;51.568;4.656;2024-01-07T03:21:19;1.72;92.80
68257;DHT22;55069;51.568;4.656;2024-01-07T03:23:46;1.76;93.24
68257;DHT22;55069;51.568;4.656;2024-01-07T03:26:12;1.78;93.02
68257;DHT22;55069;51.568;4.656;2024-01-07T03:28:38;1.72;92.82
68257;DHT22;55069;51.568;4.656;2024-01-07T03:31:08;1.69;93.25
68257;DHT22;55069;51.568;4.656;2024-01-07T03:33:34;1.65;93.17
68257;DHT22;55069;51.568;4.656;2024-01-07T03:35:59;1.62;93.05
68257;DHT22;55069;51.568;4.656;2024-01-07T03:38:25;1.63;92.89
68257;DHT22;55069;51.568;4.656;2024-01-07T03:40:50;1.68;93.00
68257;DHT22;55069;51.568;4.656;2024-01-07T03:43:16;1.72;92.76
68257;DHT22;55069;51.568;4.656;2024-01-07T03:45:41;1.68;92.76
68257;DHT22;55069;51.568;4.656;2024-01-07T03:48:08;1.66;92.84
68257;DHT22;55069;51.568;4.656;2024-01-07T03:50:34;1.69;92.86
68257;DHT22;55069;51.568;4.656;2024-01-07T03:52:59;1.61;92.55
68257;DHT22;55069;51.568;4.656;2024-01-07T03:55:25;1.61;92.81
68257;DHT22;55069;51.568;4.656;2024-01-07T03:57:50;1.54;92.75
68257;DHT22;55069;51.568;4.656;2024-01-07T04:00:16;1.51;92.44
68257;DHT22;55069;51.568;4.656;2024-01-07T04:02:42;1.56;92.72
68257;DHT22;55069;51.568;4.656;2024-01-07T04:05:07;1.61;92.79
68257;DHT22;55069;51.568;4.656;2024-01-07T04:07:34;1.52;92.94
68257;DHT22;55069;51.568;4.656;2024-01-07T04:09:59;1.63;92.96
68257;DHT22;55069;51.568;4.656;2024-01-07T04:12:25;1.62;92.84
68257;DHT22;55069;51.568;4.656;2024-01-07T04:14:50;1.61;92.81
68257;DHT22;55069;51.568;4.656;2024-01-07T04:17:16;1.63;92.96
68257;DHT22;55069;51.568;4.656;2024-01-07T04:19:41;1.69;93.00
68257;DHT22;55069;51.568;4.656;2024-01-07T04:22:07;1.66;92.73
68257;DHT22;55069;51.568;4.656;2024-01-07T04:24:32;1.66;92.66
68257;DHT22;55069;51.568;4.656;2024-01-07T04:26:58;1.66;92.85
68257;DHT22;55069;51.568;4.656;2024-01-07T04:29:23;1.65;93.06
68257;DHT22;55069;51.568;4.656;2024-01-07T04:31:49;1.51;93.16
68257;DHT22;55069;51.568;4.656;2024-01-07T04:34:14;1.58;93.02
68257;DHT22;55069;51.568;4.656;2024-01-07T04:36:39;1.55;92.82
68257;DHT22;55069;51.568;4.656;2024-01-07T04:39:05;1.62;92.87
68257;DHT22;55069;51.568;4.656;2024-01-07T04:41:30;1.59;92.82
68257;DHT22;55069;51.568;4.656;2024-01-07T04:43:56;1.56;93.24
68257;DHT22;55069;51.568;4.656;2024-01-07T04:46:21;1.45;92.81
68257;DHT22;55069;51.568;4.656;2024-01-07T04:48:47;1.54;93.40
68257;DHT22;55069;51.568;4.656;2024-01-07T04:51:12;1.58;92.98
68257;DHT22;55069;51.568;4.656;2024-01-07T04:53:38;1.63;93.15
68257;DHT22;55069;51.568;4.656;2024-01-07T04:56:03;1.56;93.19
68257;DHT22;55069;51.568;4.656;2024-01-07T04:58:29;1.62;93.05
68257;DHT22;55069;51.568;4.656;2024-01-07T05:00:54;1.66;93.17
68257;DHT22;55069;51.568;4.656;2024-01-07T05:03:20;1.61;93.04
68257;DHT22;55069;51.568;4.656;2024-01-07T05:05:45;1.65;93.33
68257;DHT22;55069;51.568;4.656;2024-01-07T05:08:11;1.66;93.17
68257;DHT22;55069;51.568;4.656;2024-01-07T05:10:36;1.63;93.39
68257;DHT22;55069;51.568;4.656;2024-01-07T05:13:02;1.59;93.57
68257;DHT22;55069;51.568;4.656;2024-01-07T05:15:30;1.63;93.58
68257;DHT22;55069;51.568;4.656;2024-01-07T05:17:56;1.63;93.10
68257;DHT22;55069;51.568;4.656;2024-01-07T05:20:21;1.61;92.91
68257;DHT22;55069;51.568;4.656;2024-01-07T05:22:47;1.63;92.96
68257;DHT22;55069;51.568;4.656;2024-01-07T05:25:12;1.65;92.94
68257;DHT22;55069;51.568;4.656;2024-01-07T05:27:38;1.61;92.87
68257;DHT22;55069;51.568;4.656;2024-01-07T05:30:04;1.54;92.90
68257;DHT22;55069;51.568;4.656;2024-01-07T05:32:29;1.54;92.92
68257;DHT22;55069;51.568;4.656;2024-01-07T05:34:55;1.56;93.02
68257;DHT22;55069;51.568;4.656;2024-01-07T05:37:20;1.58;92.99
68257;DHT22;55069;51.568;4.656;2024-01-07T05:39:46;1.55;93.08
68257;DHT22;55069;51.568;4.656;2024-01-07T05:42:12;1.52;93.36
68257;DHT22;55069;51.568;4.656;2024-01-07T05:44:37;1.52;93.18
68257;DHT22;55069;51.568;4.656;2024-01-07T05:47:03;1.52;93.11
68257;DHT22;55069;51.568;4.656;2024-01-07T05:49:29;1.52;93.12
68257;DHT22;55069;51.568;4.656;2024-01-07T05:51:55;1.54;93.22
68257;DHT22;55069;51.568;4.656;2024-01-07T05:54:20;1.55;93.29
68257;DHT22;55069;51.568;4.656;2024-01-07T05:56:46;1.54;93.35
68257;DHT22;55069;51.568;4.656;2024-01-07T05:59:11;1.58;93.09
68257;DHT22;55069;51.568;4.656;2024-01-07T06:01:36;1.66;93.13
68257;DHT22;55069;51.568;4.656;2024-01-07T06:04:02;1.69;93.18
68257;DHT22;55069;51.568;4.656;2024-01-07T06:06:28;1.52;92.98
68257;DHT22;55069;51.568;4.656;2024-01-07T06:08:53;1.59;93.44
68257;DHT22;55069;51.568;4.656;2024-01-07T06:11:19;1.54;93.16
68257;DHT22;55069;51.568;4.656;2024-01-07T06:13:46;1.52;93.18
68257;DHT22;55069;51.568;4.656;2024-01-07T06:16:12;1.48;93.34
68257;DHT22;55069;51.568;4.656;2024-01-07T06:18:37;1.47;93.45
68257;DHT22;55069;51.568;4.656;2024-01-07T06:21:03;1.45;93.37
68257;DHT22;55069;51.568;4.656;2024-01-07T06:23:29;1.45;93.59
68257;DHT22;55069;51.568;4.656;2024-01-07T06:25:54;1.47;93.43
68257;DHT22;55069;51.568;4.656;2024-01-07T06:28:20;1.44;93.50
68257;DHT22;55069;51.568;4.656;2024-01-07T06:30:46;1.47;93.74
68257;DHT22;55069;51.568;4.656;2024-01-07T06:33:11;1.50;93.64
68257;DHT22;55069;51.568;4.656;2024-01-07T06:35:38;1.50;93.75
68257;DHT22;55069;51.568;4.656;2024-01-07T06:38:03;1.54;93.78
68257;DHT22;55069;51.568;4.656;2024-01-07T06:40:29;1.52;93.73
68257;DHT22;55069;51.568;4.656;2024-01-07T06:42:55;1.50;93.81
68257;DHT22;55069;51.568;4.656;2024-01-07T06:45:21;1.48;93.65
68257;DHT22;55069;51.568;4.656;2024-01-07T06:47:47;1.47;93.51
68257;DHT22;55069;51.568;4.656;2024-01-07T06:50:12;1.45;93.50
68257;DHT22;55069;51.568;4.656;2024-01-07T06:52:38;1.38;93.60
68257;DHT22;55069;51.568;4.656;2024-01-07T06:55:04;1.27;93.78
68257;DHT22;55069;51.568;4.656;2024-01-07T06:57:29;1.35;93.85
68257;DHT22;55069;51.568;4.656;2024-01-07T06:59:55;1.30;93.84
68257;DHT22;55069;51.568;4.656;2024-01-07T07:02:21;1.40;93.92
68257;DHT22;55069;51.568;4.656;2024-01-07T07:04:47;1.31;93.84
68257;DHT22;55069;51.568;4.656;2024-01-07T07:07:13;1.31;93.99
68257;DHT22;55069;51.568;4.656;2024-01-07T07:09:38;1.38;93.78
68257;DHT22;55069;51.568;4.656;2024-01-07T07:12:04;1.34;93.84
68257;DHT22;55069;51.568;4.656;2024-01-07T07:14:31;1.38;93.47
68257;DHT22;55069;51.568;4.656;2024-01-07T07:16:56;1.41;93.07
68257;DHT22;55069;51.568;4.656;2024-01-07T07:19:21;1.45;93.17
68257;DHT22;55069;51.568;4.656;2024-01-07T07:21:47;1.50;93.13
68257;DHT22;55069;51.568;4.656;2024-01-07T07:24:12;1.41;92.79
68257;DHT22;55069;51.568;4.656;2024-01-07T07:26:38;1.44;93.35
68257;DHT22;55069;51.568;4.656;2024-01-07T07:29:07;1.41;92.68
68257;DHT22;55069;51.568;4.656;2024-01-07T07:31:35;1.44;92.91
68257;DHT22;55069;51.568;4.656;2024-01-07T07:34:05;1.50;93.06
68257;DHT22;55069;51.568;4.656;2024-01-07T07:36:31;1.48;92.55
68257;DHT22;55069;51.568;4.656;2024-01-07T07:38:57;1.55;92.83
68257;DHT22;55069;51.568;4.656;2024-01-07T07:41:22;1.48;92.68
68257;DHT22;55069;51.568;4.656;2024-01-07T07:43:48;1.47;92.70
68257;DHT22;55069;51.568;4.656;2024-01-07T07:46:13;1.40;92.32
68257;DHT22;55069;51.568;4.656;2024-01-07T07:48:41;1.34;92.17
68257;DHT22;55069;51.568;4.656;2024-01-07T07:51:06;1.35;92.17
68257;DHT22;55069;51.568;4.656;2024-01-07T07:53:32;1.37;92.16
68257;DHT22;55069;51.568;4.656;2024-01-07T07:55:57;1.35;91.56
68257;DHT22;55069;51.568;4.656;2024-01-07T07:58:23;1.40;91.59
68257;DHT22;55069;51.568;4.656;2024-01-07T08:00:48;1.41;91.38
68257;DHT22;55069;51.568;4.656;2024-01-07T08:03:14;1.32;91.38
68257;DHT22;55069;51.568;4.656;2024-01-07T08:05:40;1.30;91.77
68257;DHT22;55069;51.568;4.656;2024-01-07T08:08:07;1.31;91.66
68257;DHT22;55069;51.568;4.656;2024-01-07T08:10:32;1.34;91.61
68257;DHT22;55069;51.568;4.656;2024-01-07T08:13:00;1.35;91.22
68257;DHT22;55069;51.568;4.656;2024-01-07T08:15:25;1.35;91.34
68257;DHT22;55069;51.568;4.656;2024-01-07T08:17:51;1.44;91.40
68257;DHT22;55069;51.568;4.656;2024-01-07T08:20:17;1.32;90.92
68257;DHT22;55069;51.568;4.656;2024-01-07T08:22:42;1.26;90.69
68257;DHT22;55069;51.568;4.656;2024-01-07T08:25:08;1.28;90.88
68257;DHT22;55069;51.568;4.656;2024-01-07T08:27:34;1.24;90.73
68257;DHT22;55069;51.568;4.656;2024-01-07T08:30:01;1.34;90.91
68257;DHT22;55069;51.568;4.656;2024-01-07T08:32:27;1.30;90.99
68257;DHT22;55069;51.568;4.656;2024-01-07T08:34:52;1.35;91.12
68257;DHT22;55069;51.568;4.656;2024-01-07T08:37:18;1.45;90.98
68257;DHT22;55069;51.568;4.656;2024-01-07T08:39:43;1.41;90.69
68257;DHT22;55069;51.568;4.656;2024-01-07T08:42:09;1.40;90.59
68257;DHT22;55069;51.568;4.656;2024-01-07T08:44:35;1.32;90.64
68257;DHT22;55069;51.568;4.656;2024-01-07T08:47:00;1.37;90.67
68257;DHT22;55069;51.568;4.656;2024-01-07T08:49:28;1.34;90.81
68257;DHT22;55069;51.568;4.656;2024-01-07T08:51:53;1.38;91.03
68257;DHT22;55069;51.568;4.656;2024-01-07T08:54:21;1.40;90.97
68257;DHT22;55069;51.568;4.656;2024-01-07T08:56:47;1.37;90.59
68257;DHT22;55069;51.568;4.656;2024-01-07T08:59:12;1.37;90.27
68257;DHT22;55069;51.568;4.656;2024-01-07T09:01:38;1.37;90.37
68257;DHT22;55069;51.568;4.656;2024-01-07T09:04:03;1.40;90.51
68257;DHT22;55069;51.568;4.656;2024-01-07T09:06:29;1.45;90.84
68257;DHT22;55069;51.568;4.656;2024-01-07T09:08:54;1.42;90.71
68257;DHT22;55069;51.568;4.656;2024-01-07T09:11:20;1.37;90.94
68257;DHT22;55069;51.568;4.656;2024-01-07T09:13:45;1.34;90.96
68257;DHT22;55069;51.568;4.656;2024-01-07T09:16:13;1.38;90.64
68257;DHT22;55069;51.568;4.656;2024-01-07T09:18:39;1.40;90.99
68257;DHT22;55069;51.568;4.656;2024-01-07T09:21:04;1.42;90.80
68257;DHT22;55069;51.568;4.656;2024-01-07T09:23:31;1.42;90.63
68257;DHT22;55069;51.568;4.656;2024-01-07T09:25:59;1.41;90.98
68257;DHT22;55069;51.568;4.656;2024-01-07T09:28:25;1.40;90.97
68257;DHT22;55069;51.568;4.656;2024-01-07T09:30:50;1.32;90.36
68257;DHT22;55069;51.568;4.656;2024-01-07T09:33:16;1.47;90.50
68257;DHT22;55069;51.568;4.656;2024-01-07T09:35:42;1.52;90.23
68257;DHT22;55069;51.568;4.656;2024-01-07T09:38:09;1.52;89.57
68257;DHT22;55069;51.568;4.656;2024-01-07T09:40:34;1.51;90.22
68257;DHT22;55069;51.568;4.656;2024-01-07T09:43:00;1.56;89.72
68257;DHT22;55069;51.568;4.656;2024-01-07T09:45:26;1.51;89.73
68257;DHT22;55069;51.568;4.656;2024-01-07T09:47:54;1.50;89.45
68257;DHT22;55069;51.568;4.656;2024-01-07T09:50:19;1.52;89.69
68257;DHT22;55069;51.568;4.656;2024-01-07T09:52:45;1.44;89.41
68257;DHT22;55069;51.568;4.656;2024-01-07T09:55:33;1.40;89.07
68257;DHT22;55069;51.568;4.656;2024-01-07T09:57:58;1.41;89.84
68257;DHT22;55069;51.568;4.656;2024-01-07T10:00:26;1.47;89.41
68257;DHT22;55069;51.568;4.656;2024-01-07T10:02:52;1.48;88.80
68257;DHT22;55069;51.568;4.656;2024-01-07T10:05:18;1.40;89.01
68257;DHT22;55069;51.568;4.656;2024-01-07T10:07:43;1.45;88.90
68257;DHT22;55069;51.568;4.656;2024-01-07T10:12:38;1.38;88.06
68257;DHT22;55069;51.568;4.656;2024-01-07T10:15:04;1.35;88.17
68257;DHT22;55069;51.568;4.656;2024-01-07T10:17:30;1.38;88.60
68257;DHT22;55069;51.568;4.656;2024-01-07T10:19:56;1.38;88.36
68257;DHT22;55069;51.568;4.656;2024-01-07T10:22:22;1.45;88.76
68257;DHT22;55069;51.568;4.656;2024-01-07T10:24:47;1.41;88.33
68257;DHT22;55069;51.568;4.656;2024-01-07T10:27:14;1.37;88.56
68257;DHT22;55069;51.568;4.656;2024-01-07T10:29:39;1.31;88.47
68257;DHT22;55069;51.568;4.656;2024-01-07T10:32:05;1.30;88.20
68257;DHT22;55069;51.568;4.656;2024-01-07T10:34:32;1.40;88.46
68257;DHT22;55069;51.568;4.656;2024-01-07T10:37:00;1.28;88.04
68257;DHT22;55069;51.568;4.656;2024-01-07T10:39:26;1.26;87.98
68257;DHT22;55069;51.568;4.656;2024-01-07T10:41:55;1.27;87.93
68257;DHT22;55069;51.568;4.656;2024-01-07T10:44:31;1.14;87.63
68257;DHT22;55069;51.568;4.656;2024-01-07T10:46:58;1.24;88.40
68257;DHT22;55069;51.568;4.656;2024-01-07T10:49:26;1.24;88.74
68257;DHT22;55069;51.568;4.656;2024-01-07T10:52:05;1.28;88.97
68257;DHT22;55069;51.568;4.656;2024-01-07T10:54:32;1.34;88.98
68257;DHT22;55069;51.568;4.656;2024-01-07T10:59:38;1.45;88.66
68257;DHT22;55069;51.568;4.656;2024-01-07T11:02:05;1.32;88.08
68257;DHT22;55069;51.568;4.656;2024-01-07T11:04:37;1.37;88.17
68257;DHT22;55069;51.568;4.656;2024-01-07T11:07:31;1.38;87.83
68257;DHT22;55069;51.568;4.656;2024-01-07T11:12:31;1.28;88.17
68257;DHT22;55069;51.568;4.656;2024-01-07T11:14:57;1.28;88.13
68257;DHT22;55069;51.568;4.656;2024-01-07T11:17:40;1.21;88.21
68257;DHT22;55069;51.568;4.656;2024-01-07T11:20:21;1.17;88.49
68257;DHT22;55069;51.568;4.656;2024-01-07T11:22:47;1.13;88.67
68257;DHT22;55069;51.568;4.656;2024-01-07T11:28:00;1.20;88.38
68257;DHT22;55069;51.568;4.656;2024-01-07T11:30:26;1.19;88.73
68257;DHT22;55069;51.568;4.656;2024-01-07T11:32:58;1.27;88.73
68257;DHT22;55069;51.568;4.656;2024-01-07T11:38:18;1.31;88.32
68257;DHT22;55069;51.568;4.656;2024-01-07T11:40:44;1.37;88.63
68257;DHT22;55069;51.568;4.656;2024-01-07T11:43:10;1.40;88.85
68257;DHT22;55069;51.568;4.656;2024-01-07T11:45:36;1.41;88.17
68257;DHT22;55069;51.568;4.656;2024-01-07T11:48:02;1.44;88.08
68257;DHT22;55069;51.568;4.656;2024-01-07T11:50:27;1.47;88.27
68257;DHT22;55069;51.568;4.656;2024-01-07T11:52:53;1.52;88.13
68257;DHT22;55069;51.568;4.656;2024-01-07T11:55:20;1.58;87.97
68257;DHT22;55069;51.568;4.656;2024-01-07T11:57:46;1.65;87.37
68257;DHT22;55069;51.568;4.656;2024-01-07T12:00:12;1.69;87.16
68257;DHT22;55069;51.568;4.656;2024-01-07T12:02:40;1.62;86.94
68257;DHT22;55069;51.568;4.656;2024-01-07T12:05:05;1.61;87.29
68257;DHT22;55069;51.568;4.656;2024-01-07T12:07:31;1.52;87.09
68257;DHT22;55069;51.568;4.656;2024-01-07T12:09:57;1.50;87.17
68257;DHT22;55069;51.568;4.656;2024-01-07T12:12:23;1.50;86.91
68257;DHT22;55069;51.568;4.656;2024-01-07T12:14:49;1.52;86.81
68257;DHT22;55069;51.568;4.656;2024-01-07T12:17:18;1.55;86.27
68257;DHT22;55069;51.568;4.656;2024-01-07T12:19:43;1.69;86.40
68257;DHT22;55069;51.568;4.656;2024-01-07T12:22:09;1.78;86.45
68257;DHT22;55069;51.568;4.656;2024-01-07T12:24:35;1.73;85.60
68257;DHT22;55069;51.568;4.656;2024-01-07T12:27:07;1.76;85.89
68257;DHT22;55069;51.568;4.656;2024-01-07T12:29:32;1.79;85.41
68257;DHT22;55069;51.568;4.656;2024-01-07T12:31:59;1.73;85.51
68257;DHT22;55069;51.568;4.656;2024-01-07T12:34:25;1.63;85.87
68257;DHT22;55069;51.568;4.656;2024-01-07T12:36:50;1.61;85.73
68257;DHT22;55069;51.568;4.656;2024-01-07T12:39:16;1.55;85.67
68257;DHT22;55069;51.568;4.656;2024-01-07T12:41:43;1.48;85.62
68257;DHT22;55069;51.568;4.656;2024-01-07T12:44:08;1.44;85.91
68257;DHT22;55069;51.568;4.656;2024-01-07T12:46:34;1.47;86.07
68257;DHT22;55069;51.568;4.656;2024-01-07T12:49:00;1.35;85.15
68257;DHT22;55069;51.568;4.656;2024-01-07T12:51:26;1.30;85.24
68257;DHT22;55069;51.568;4.656;2024-01-07T12:53:51;1.34;85.49
68257;DHT22;55069;51.568;4.656;2024-01-07T12:56:17;1.34;85.11
68257;DHT22;55069;51.568;4.656;2024-01-07T12:58:42;1.32;85.30
68257;DHT22;55069;51.568;4.656;2024-01-07T13:01:08;1.41;84.93
68257;DHT22;55069;51.568;4.656;2024-01-07T13:03:34;1.32;83.94
68257;DHT22;55069;51.568;4.656;2024-01-07T13:05:59;1.26;83.92
68257;DHT22;55069;51.568;4.656;2024-01-07T13:08:26;1.21;83.45
68257;DHT22;55069;51.568;4.656;2024-01-07T13:10:54;1.26;83.79
68257;DHT22;55069;51.568;4.656;2024-01-07T13:13:20;1.28;83.95
68257;DHT22;55069;51.568;4.656;2024-01-07T13:15:45;1.35;84.26
68257;DHT22;55069;51.568;4.656;2024-01-07T13:18:11;1.30;83.34
68257;DHT22;55069;51.568;4.656;2024-01-07T13:20:39;1.26;83.44
68257;DHT22;55069;51.568;4.656;2024-01-07T13:23:05;1.28;83.68
68257;DHT22;55069;51.568;4.656;2024-01-07T13:25:31;1.50;83.92
68257;DHT22;55069;51.568;4.656;2024-01-07T13:27:57;1.70;83.00
68257;DHT22;55069;51.568;4.656;2024-01-07T13:30:23;1.83;82.60
68257;DHT22;55069;51.568;4.656;2024-01-07T13:32:49;1.89;82.49
68257;DHT22;55069;51.568;4.656;2024-01-07T13:35:15;1.85;82.47
68257;DHT22;55069;51.568;4.656;2024-01-07T13:37:41;1.82;82.87
68257;DHT22;55069;51.568;4.656;2024-01-07T13:40:07;1.72;82.90
68257;DHT22;55069;51.568;4.656;2024-01-07T13:42:36;1.70;82.97
68257;DHT22;55069;51.568;4.656;2024-01-07T13:45:02;1.78;83.61
68257;DHT22;55069;51.568;4.656;2024-01-07T13:47:28;1.78;83.37
68257;DHT22;55069;51.568;4.656;2024-01-07T13:49:53;1.66;81.90
68257;DHT22;55069;51.568;4.656;2024-01-07T13:52:19;1.62;81.70
68257;DHT22;55069;51.568;4.656;2024-01-07T13:54:45;1.48;80.47
68257;DHT22;55069;51.568;4.656;2024-01-07T13:57:10;1.42;81.22
68257;DHT22;55069;51.568;4.656;2024-01-07T13:59:38;1.42;81.67
68257;DHT22;55069;51.568;4.656;2024-01-07T14:02:05;1.45;81.46
68257;DHT22;55069;51.568;4.656;2024-01-07T14:04:30;1.54;81.87
68257;DHT22;55069;51.568;4.656;2024-01-07T14:06:57;1.58;80.98
68257;DHT22;55069;51.568;4.656;2024-01-07T14:09:23;1.61;80.68
68257;DHT22;55069;51.568;4.656;2024-01-07T14:11:48;1.70;79.82
68257;DHT22;55069;51.568;4.656;2024-01-07T14:14:14;1.72;80.36
68257;DHT22;55069;51.568;4.656;2024-01-07T14:16:39;1.65;79.72
68257;DHT22;55069;51.568;4.656;2024-01-07T14:19:06;1.65;79.86
68257;DHT22;55069;51.568;4.656;2024-01-07T14:21:31;1.62;79.56
68257;DHT22;55069;51.568;4.656;2024-01-07T14:23:57;1.68;80.56
68257;DHT22;55069;51.568;4.656;2024-01-07T14:26:22;1.54;78.31
68257;DHT22;55069;51.568;4.656;2024-01-07T14:28:51;1.50;78.87
68257;DHT22;55069;51.568;4.656;2024-01-07T14:31:17;1.50;79.10
68257;DHT22;55069;51.568;4.656;2024-01-07T14:33:43;1.50;79.13
68257;DHT22;55069;51.568;4.656;2024-01-07T14:36:09;1.55;79.21
68257;DHT22;55069;51.568;4.656;2024-01-07T14:38:45;1.61;79.40
68257;DHT22;55069;51.568;4.656;2024-01-07T14:41:14;1.66;79.23
68257;DHT22;55069;51.568;4.656;2024-01-07T14:43:41;1.63;79.30
68257;DHT22;55069;51.568;4.656;2024-01-07T14:46:07;1.59;78.95
68257;DHT22;55069;51.568;4.656;2024-01-07T14:48:34;1.50;79.09
68257;DHT22;55069;51.568;4.656;2024-01-07T14:50:59;1.37;78.30
68257;DHT22;55069;51.568;4.656;2024-01-07T14:53:25;1.21;78.41
68257;DHT22;55069;51.568;4.656;2024-01-07T14:55:51;1.23;79.05
68257;DHT22;55069;51.568;4.656;2024-01-07T14:58:17;1.14;79.44
68257;DHT22;55069;51.568;4.656;2024-01-07T15:00:43;1.11;79.40
68257;DHT22;55069;51.568;4.656;2024-01-07T15:03:09;1.04;79.60
68257;DHT22;55069;51.568;4.656;2024-01-07T15:05:34;1.00;79.88
68257;DHT22;55069;51.568;4.656;2024-01-07T15:08:00;0.94;80.13
68257;DHT22;55069;51.568;4.656;2024-01-07T15:10:26;1.00;80.84
68257;DHT22;55069;51.568;4.656;2024-01-07T15:12:51;1.01;80.70
68257;DHT22;55069;51.568;4.656;2024-01-07T15:15:17;1.01;80.46
68257;DHT22;55069;51.568;4.656;2024-01-07T15:17:44;1.04;80.80
68257;DHT22;55069;51.568;4.656;2024-01-07T15:20:10;1.04;80.77
68257;DHT22;55069;51.568;4.656;2024-01-07T15:22:35;1.05;80.79
68257;DHT22;55069;51.568;4.656;2024-01-07T15:25:01;1.10;80.57
68257;DHT22;55069;51.568;4.656;2024-01-07T15:27:27;1.05;80.76
68257;DHT22;55069;51.568;4.656;2024-01-07T15:29:54;0.96;79.90
68257;DHT22;55069;51.568;4.656;2024-01-07T15:32:19;0.96;80.04
68257;DHT22;55069;51.568;4.656;2024-01-07T15:34:45;0.92;81.08
68257;DHT22;55069;51.568;4.656;2024-01-07T15:37:10;0.92;80.81
68257;DHT22;55069;51.568;4.656;2024-01-07T15:39:36;0.82;80.89
68257;DHT22;55069;51.568;4.656;2024-01-07T15:42:02;0.72;81.61
68257;DHT22;55069;51.568;4.656;2024-01-07T15:44:27;0.62;81.63
68257;DHT22;55069;51.568;4.656;2024-01-07T15:46:53;0.52;81.32
68257;DHT22;55069;51.568;4.656;2024-01-07T15:49:19;0.45;81.93
68257;DHT22;55069;51.568;4.656;2024-01-07T15:51:44;0.37;81.75